sensor_id;sensor_type;location;lat;lon;timestamp;pressure;altitude;pressure_sealevel;temperature;humidity
61697;BME280;47610;52.252;20.922;2023-04-20T00:04:44;100591.16;;;9.42;100.00
61697;BME280;47610;52.252;20.922;2023-04-20T00:09:47;100583.77;;;9.39;100.00
61697;BME280;47610;52.252;20.922;2023-04-20T00:14:50;100578.56;;;9.39;100.00
61697;BME280;47610;52.252;20.922;2023-04-20T00:19:54;100578.08;;;9.39;100.00
61697;BME280;47610;52.252;20.922;2023-04-20T00:24:57;100576.14;;;9.40;100.00
61697;BME280;47610;52.252;20.922;2023-04-20T00:30:00;100574.88;;;9.40;100.00
61697;BME280;47610;52.252;20.922;2023-04-20T00:35:04;100579.60;;;9.39;100.00
61697;BME280;47610;52.252;20.922;2023-04-20T00:40:09;100579.91;;;9.38;100.00
61697;BME280;47610;52.252;20.922;2023-04-20T00:45:12;100575.87;;;9.40;100.00
61697;BME280;47610;52.252;20.922;2023-04-20T00:50:15;100577.93;;;9.43;100.00
61697;BME280;47610;52.252;20.922;2023-04-20T00:55:19;100580.73;;;9.44;100.00
61697;BME280;47610;52.252;20.922;2023-04-20T01:00:22;100582.44;;;9.45;100.00
61697;BME280;47610;52.252;20.922;2023-04-20T01:05:25;100582.17;;;9.45;100.00
61697;BME280;47610;52.252;20.922;2023-04-20T01:10:29;100583.44;;;9.44;100.00
61697;BME280;47610;52.252;20.922;2023-04-20T01:15:32;100585.58;;;9.44;100.00
61697;BME280;47610;52.252;20.922;2023-04-20T01:20:35;100578.11;;;9.46;100.00
61697;BME280;47610;52.252;20.922;2023-04-20T01:25:38;100579.61;;;9.47;100.00
61697;BME280;47610;52.252;20.922;2023-04-20T01:30:42;100579.56;;;9.42;100.00
61697;BME280;47610;52.252;20.922;2023-04-20T01:35:45;100574.33;;;9.39;100.00
61697;BME280;47610;52.252;20.922;2023-04-20T01:40:48;100576.11;;;9.35;100.00
61697;BME280;47610;52.252;20.922;2023-04-20T01:45:52;100574.42;;;9.31;100.00
61697;BME280;47610;52.252;20.922;2023-04-20T01:50:55;100573.28;;;9.25;100.00
61697;BME280;47610;52.252;20.922;2023-04-20T01:55:58;100574.89;;;9.21;100.00
61697;BME280;47610;52.252;20.922;2023-04-20T02:01:02;100575.21;;;9.20;100.00
61697;BME280;47610;52.252;20.922;2023-04-20T02:06:06;100571.44;;;9.21;100.00
61697;BME280;47610;52.252;20.922;2023-04-20T02:11:09;100573.41;;;9.22;100.00
61697;BME280;47610;52.252;20.922;2023-04-20T02:16:13;100575.61;;;9.22;100.00
61697;BME280;47610;52.252;20.922;2023-04-20T02:21:16;100580.13;;;9.22;100.00
61697;BME280;47610;52.252;20.922;2023-04-20T02:26:19;100579.44;;;9.19;100.00
61697;BME280;47610;52.252;20.922;2023-04-20T02:31:22;100578.09;;;9.16;100.00
61697;BME280;47610;52.252;20.922;2023-04-20T02:36:25;100580.84;;;9.16;100.00
61697;BME280;47610;52.252;20.922;2023-04-20T02:41:29;100585.58;;;9.16;100.00
61697;BME280;47610;52.252;20.922;2023-04-20T02:46:32;100581.39;;;9.15;100.00
61697;BME280;47610;52.252;20.922;2023-04-20T02:51:35;100583.75;;;9.15;100.00
61697;BME280;47610;52.252;20.922;2023-04-20T02:56:38;100580.43;;;9.14;100.00
61697;BME280;47610;52.252;20.922;2023-04-20T03:01:41;100580.98;;;9.14;100.00
61697;BME280;47610;52.252;20.922;2023-04-20T03:06:45;100585.00;;;9.13;100.00
61697;BME280;47610;52.252;20.922;2023-04-20T03:11:48;100585.96;;;9.12;100.00
61697;BME280;47610;52.252;20.922;2023-04-20T03:16:51;100585.25;;;9.12;100.00
61697;BME280;47610;52.252;20.922;2023-04-20T03:21:55;100585.25;;;9.11;100.00
61697;BME280;47610;52.252;20.922;2023-04-20T03:26:58;100588.12;;;9.14;100.00
61697;BME280;47610;52.252;20.922;2023-04-20T03:32:01;100583.96;;;9.17;100.00
61697;BME280;47610;52.252;20.922;2023-04-20T03:37:04;100586.52;;;9.20;100.00
61697;BME280;47610;52.252;20.922;2023-04-20T03:42:08;100585.96;;;9.18;100.00
61697;BME280;47610;52.252;20.922;2023-04-20T03:47:11;100587.92;;;9.17;100.00
61697;BME280;47610;52.252;20.922;2023-04-20T03:52:14;100592.03;;;9.14;100.00
61697;BME280;47610;52.252;20.922;2023-04-20T03:57:17;100595.87;;;9.12;100.00
61697;BME280;47610;52.252;20.922;2023-04-20T04:02:20;100600.99;;;9.10;100.00
61697;BME280;47610;52.252;20.922;2023-04-20T04:07:24;100603.61;;;9.07;100.00
61697;BME280;47610;52.252;20.922;2023-04-20T04:12:27;100609.95;;;9.04;100.00
61697;BME280;47610;52.252;20.922;2023-04-20T04:17:30;100616.04;;;9.04;100.00
61697;BME280;47610;52.252;20.922;2023-04-20T04:22:33;100619.63;;;9.00;100.00
61697;BME280;47610;52.252;20.922;2023-04-20T04:27:36;100619.73;;;8.99;100.00
61697;BME280;47610;52.252;20.922;2023-04-20T04:32:39;100620.23;;;9.00;100.00
61697;BME280;47610;52.252;20.922;2023-04-20T04:37:43;100626.17;;;9.06;100.00
61697;BME280;47610;52.252;20.922;2023-04-20T04:42:46;100630.05;;;9.11;100.00
61697;BME280;47610;52.252;20.922;2023-04-20T04:47:49;100631.19;;;9.15;100.00
61697;BME280;47610;52.252;20.922;2023-04-20T04:52:52;100635.77;;;9.21;100.00
61697;BME280;47610;52.252;20.922;2023-04-20T04:57:55;100636.51;;;9.25;100.00
61697;BME280;47610;52.252;20.922;2023-04-20T05:02:59;100641.11;;;9.30;100.00
61697;BME280;47610;52.252;20.922;2023-04-20T05:08:02;100645.09;;;9.39;100.00
61697;BME280;47610;52.252;20.922;2023-04-20T05:13:05;100647.75;;;9.55;100.00
61697;BME280;47610;52.252;20.922;2023-04-20T05:18:08;100653.33;;;9.70;100.00
61697;BME280;47610;52.252;20.922;2023-04-20T05:23:11;100658.02;;;9.81;100.00
61697;BME280;47610;52.252;20.922;2023-04-20T05:28:14;100655.23;;;9.90;100.00
61697;BME280;47610;52.252;20.922;2023-04-20T05:33:18;100660.63;;;10.00;100.00
61697;BME280;47610;52.252;20.922;2023-04-20T05:38:21;100668.23;;;10.19;100.00
61697;BME280;47610;52.252;20.922;2023-04-20T05:43:24;100674.05;;;11.03;100.00
61697;BME280;47610;52.252;20.922;2023-04-20T05:48:27;100681.77;;;11.90;100.00
61697;BME280;47610;52.252;20.922;2023-04-20T05:53:31;100680.38;;;12.72;100.00
61697;BME280;47610;52.252;20.922;2023-04-20T05:58:34;100678.81;;;12.72;100.00
61697;BME280;47610;52.252;20.922;2023-04-20T06:03:38;100686.77;;;12.72;100.00
61697;BME280;47610;52.252;20.922;2023-04-20T06:08:41;100689.76;;;13.06;100.00
61697;BME280;47610;52.252;20.922;2023-04-20T06:13:45;100690.53;;;13.48;100.00
61697;BME280;47610;52.252;20.922;2023-04-20T06:18:48;100698.71;;;15.01;100.00
61697;BME280;47610;52.252;20.922;2023-04-20T06:23:52;100706.77;;;16.67;100.00
61697;BME280;47610;52.252;20.922;2023-04-20T06:28:56;100708.92;;;17.71;100.00
61697;BME280;47610;52.252;20.922;2023-04-20T06:33:58;100708.13;;;18.72;100.00
61697;BME280;47610;52.252;20.922;2023-04-20T06:39:02;100705.03;;;19.51;91.62
61697;BME280;47610;52.252;20.922;2023-04-20T06:44:05;100704.37;;;20.88;86.73
61697;BME280;47610;52.252;20.922;2023-04-20T06:49:08;100704.29;;;22.49;77.22
61697;BME280;47610;52.252;20.922;2023-04-20T06:54:12;100704.02;;;23.16;66.00
61697;BME280;47610;52.252;20.922;2023-04-20T06:59:15;100711.23;;;23.20;60.55
61697;BME280;47610;52.252;20.922;2023-04-20T07:04:18;100712.52;;;23.22;56.39
61697;BME280;47610;52.252;20.922;2023-04-20T07:09:22;100714.30;;;22.39;54.92
61697;BME280;47610;52.252;20.922;2023-04-20T07:14:25;100713.64;;;22.25;55.53
61697;BME280;47610;52.252;20.922;2023-04-20T07:19:28;100715.28;;;23.32;53.13
61697;BME280;47610;52.252;20.922;2023-04-20T07:24:32;100722.93;;;24.14;47.96
61697;BME280;47610;52.252;20.922;2023-04-20T07:29:35;100723.63;;;24.76;43.97
61697;BME280;47610;52.252;20.922;2023-04-20T07:34:39;100729.05;;;25.10;41.66
61697;BME280;47610;52.252;20.922;2023-04-20T07:39:43;100721.98;;;24.71;42.58
61697;BME280;47610;52.252;20.922;2023-04-20T07:44:46;100727.41;;;24.76;42.12
61697;BME280;47610;52.252;20.922;2023-04-20T07:49:49;100723.81;;;25.45;42.05
61697;BME280;47610;52.252;20.922;2023-04-20T07:54:52;100723.99;;;25.71;37.44
61697;BME280;47610;52.252;20.922;2023-04-20T07:59:55;100720.13;;;25.83;37.81
61697;BME280;47610;52.252;20.922;2023-04-20T08:04:59;100720.05;;;26.36;35.03
61697;BME280;47610;52.252;20.922;2023-04-20T08:10:04;100712.65;;;26.82;36.19
61697;BME280;47610;52.252;20.922;2023-04-20T08:15:09;100716.96;;;27.18;33.09
61697;BME280;47610;52.252;20.922;2023-04-20T08:20:13;100712.75;;;27.08;30.77
61697;BME280;47610;52.252;20.922;2023-04-20T08:25:16;100712.36;;;27.35;31.71
61697;BME280;47610;52.252;20.922;2023-04-20T08:30:18;100720.63;;;27.98;30.69
61697;BME280;47610;52.252;20.922;2023-04-20T08:35:21;100719.51;;;28.69;30.43
61697;BME280;47610;52.252;20.922;2023-04-20T08:40:24;100725.84;;;28.97;27.31
61697;BME280;47610;52.252;20.922;2023-04-20T08:45:29;100726.67;;;28.47;26.59
61697;BME280;47610;52.252;20.922;2023-04-20T08:50:32;100726.56;;;28.59;27.15
61697;BME280;47610;52.252;20.922;2023-04-20T08:55:36;100727.73;;;28.40;27.24
61697;BME280;47610;52.252;20.922;2023-04-20T09:00:47;100720.72;;;28.20;27.27
61697;BME280;47610;52.252;20.922;2023-04-20T09:05:51;100718.34;;;28.02;27.33
61697;BME280;47610;52.252;20.922;2023-04-20T09:10:54;100712.19;;;27.88;28.35
61697;BME280;47610;52.252;20.922;2023-04-20T09:16:07;100712.29;;;27.77;28.88
61697;BME280;47610;52.252;20.922;2023-04-20T09:21:10;100707.81;;;27.94;29.46
61697;BME280;47610;52.252;20.922;2023-04-20T09:26:20;100712.38;;;27.42;29.10
61697;BME280;47610;52.252;20.922;2023-04-20T09:31:23;100709.45;;;26.41;29.27
61697;BME280;47610;52.252;20.922;2023-04-20T09:36:36;100711.76;;;25.11;30.56
61697;BME280;47610;52.252;20.922;2023-04-20T09:41:40;100710.23;;;25.04;31.40
61697;BME280;47610;52.252;20.922;2023-04-20T09:46:44;100704.52;;;25.31;32.26
61697;BME280;47610;52.252;20.922;2023-04-20T09:51:49;100701.17;;;24.00;31.08
61697;BME280;47610;52.252;20.922;2023-04-20T09:56:50;100709.44;;;22.35;33.26
61697;BME280;47610;52.252;20.922;2023-04-20T10:01:54;100702.97;;;22.09;35.62
61697;BME280;47610;52.252;20.922;2023-04-20T10:06:58;100700.40;;;21.95;33.81
61697;BME280;47610;52.252;20.922;2023-04-20T10:12:08;100696.11;;;21.18;34.49
61697;BME280;47610;52.252;20.922;2023-04-20T10:17:13;100691.64;;;20.71;36.74
61697;BME280;47610;52.252;20.922;2023-04-20T10:22:27;100688.65;;;20.51;36.62
61697;BME280;47610;52.252;20.922;2023-04-20T10:27:32;100686.77;;;19.96;36.22
61697;BME280;47610;52.252;20.922;2023-04-20T10:32:35;100678.63;;;19.56;37.38
61697;BME280;47610;52.252;20.922;2023-04-20T10:37:48;100671.63;;;19.25;37.13
61697;BME280;47610;52.252;20.922;2023-04-20T10:42:52;100670.45;;;19.27;36.33
61697;BME280;47610;52.252;20.922;2023-04-20T10:47:56;100660.96;;;19.25;35.10
61697;BME280;47610;52.252;20.922;2023-04-20T10:52:59;100652.89;;;19.25;34.48
61697;BME280;47610;52.252;20.922;2023-04-20T10:58:02;100664.38;;;19.39;35.61
61697;BME280;47610;52.252;20.922;2023-04-20T11:03:05;100658.83;;;19.33;34.83
61697;BME280;47610;52.252;20.922;2023-04-20T11:08:08;100652.49;;;19.43;35.17
61697;BME280;47610;52.252;20.922;2023-04-20T11:13:21;100651.05;;;19.44;32.52
61697;BME280;47610;52.252;20.922;2023-04-20T11:18:24;100651.25;;;19.45;31.31
61697;BME280;47610;52.252;20.922;2023-04-20T11:23:37;100651.18;;;19.42;31.23
61697;BME280;47610;52.252;20.922;2023-04-20T11:28:51;100654.73;;;19.32;31.92
61697;BME280;47610;52.252;20.922;2023-04-20T11:33:55;100650.81;;;19.18;31.59
61697;BME280;47610;52.252;20.922;2023-04-20T11:39:11;100649.95;;;19.08;31.51
61697;BME280;47610;52.252;20.922;2023-04-20T11:44:16;100649.86;;;18.96;31.36
61697;BME280;47610;52.252;20.922;2023-04-20T11:49:20;100645.67;;;18.83;31.88
61697;BME280;47610;52.252;20.922;2023-04-20T11:54:26;100648.02;;;18.64;32.45
61697;BME280;47610;52.252;20.922;2023-04-20T11:59:29;100638.73;;;18.61;32.51
61697;BME280;47610;52.252;20.922;2023-04-20T12:04:33;100632.77;;;18.75;32.44
61697;BME280;47610;52.252;20.922;2023-04-20T12:09:36;100628.64;;;18.97;31.13
61697;BME280;47610;52.252;20.922;2023-04-20T12:14:40;100626.06;;;19.17;30.50
61697;BME280;47610;52.252;20.922;2023-04-20T12:19:43;100630.00;;;19.27;30.37
61697;BME280;47610;52.252;20.922;2023-04-20T12:24:46;100629.23;;;19.17;29.75
61697;BME280;47610;52.252;20.922;2023-04-20T12:29:50;100623.99;;;19.12;32.10
61697;BME280;47610;52.252;20.922;2023-04-20T12:34:54;100619.91;;;19.00;30.15
61697;BME280;47610;52.252;20.922;2023-04-20T12:40:00;100613.70;;;18.89;30.63
61697;BME280;47610;52.252;20.922;2023-04-20T12:45:06;100603.33;;;18.98;30.59
61697;BME280;47610;52.252;20.922;2023-04-20T12:50:11;100600.52;;;19.12;28.92
61697;BME280;47610;52.252;20.922;2023-04-20T12:55:14;100597.47;;;19.18;28.53
61697;BME280;47610;52.252;20.922;2023-04-20T13:00:19;100594.05;;;19.18;29.57
61697;BME280;47610;52.252;20.922;2023-04-20T13:05:23;100597.54;;;19.11;28.50
61697;BME280;47610;52.252;20.922;2023-04-20T13:10:26;100591.17;;;19.06;29.36
61697;BME280;47610;52.252;20.922;2023-04-20T13:15:30;100589.76;;;19.09;29.20
61697;BME280;47610;52.252;20.922;2023-04-20T13:20:33;100589.23;;;19.08;29.20
61697;BME280;47610;52.252;20.922;2023-04-20T13:25:37;100578.65;;;19.09;30.04
61697;BME280;47610;52.252;20.922;2023-04-20T13:30:40;100586.12;;;19.05;29.85
61697;BME280;47610;52.252;20.922;2023-04-20T13:35:43;100587.88;;;18.89;30.90
61697;BME280;47610;52.252;20.922;2023-04-20T13:40:47;100586.73;;;18.73;31.63
61697;BME280;47610;52.252;20.922;2023-04-20T13:45:50;100584.93;;;18.70;33.53
61697;BME280;47610;52.252;20.922;2023-04-20T13:50:54;100583.14;;;18.84;33.09
61697;BME280;47610;52.252;20.922;2023-04-20T13:55:57;100580.68;;;19.05;33.44
61697;BME280;47610;52.252;20.922;2023-04-20T14:01:05;100577.20;;;19.21;32.96
61697;BME280;47610;52.252;20.922;2023-04-20T14:06:09;100577.90;;;19.16;30.52
61697;BME280;47610;52.252;20.922;2023-04-20T14:11:12;100572.95;;;19.05;31.72
61697;BME280;47610;52.252;20.922;2023-04-20T14:16:15;100574.43;;;19.04;33.95
61697;BME280;47610;52.252;20.922;2023-04-20T14:21:19;100578.76;;;18.98;32.81
61697;BME280;47610;52.252;20.922;2023-04-20T14:26:22;100580.23;;;18.86;31.36
61697;BME280;47610;52.252;20.922;2023-04-20T14:31:26;100571.95;;;18.78;29.80
61697;BME280;47610;52.252;20.922;2023-04-20T14:36:29;100570.48;;;18.82;29.50
61697;BME280;47610;52.252;20.922;2023-04-20T14:41:34;100570.02;;;18.84;29.09
61697;BME280;47610;52.252;20.922;2023-04-20T14:46:39;100565.42;;;18.80;28.90
61697;BME280;47610;52.252;20.922;2023-04-20T14:51:42;100563.40;;;18.66;29.18
61697;BME280;47610;52.252;20.922;2023-04-20T14:56:45;100567.77;;;18.55;30.16
61697;BME280;47610;52.252;20.922;2023-04-20T15:01:49;100569.55;;;18.40;29.95
61697;BME280;47610;52.252;20.922;2023-04-20T15:06:52;100569.91;;;18.28;29.68
61697;BME280;47610;52.252;20.922;2023-04-20T15:11:55;100567.55;;;18.22;30.15
61697;BME280;47610;52.252;20.922;2023-04-20T15:16:58;100566.21;;;18.26;30.86
61697;BME280;47610;52.252;20.922;2023-04-20T15:22:02;100563.32;;;18.28;30.75
61697;BME280;47610;52.252;20.922;2023-04-20T15:27:07;100563.77;;;18.26;30.54
61697;BME280;47610;52.252;20.922;2023-04-20T15:32:11;100565.36;;;18.21;30.03
61697;BME280;47610;52.252;20.922;2023-04-20T15:37:15;100562.48;;;18.14;29.72
61697;BME280;47610;52.252;20.922;2023-04-20T15:42:18;100559.40;;;18.05;29.99
61697;BME280;47610;52.252;20.922;2023-04-20T15:47:21;100560.27;;;18.00;30.84
61697;BME280;47610;52.252;20.922;2023-04-20T15:52:25;100559.23;;;18.01;30.99
61697;BME280;47610;52.252;20.922;2023-04-20T15:57:30;100558.23;;;18.04;30.82
61697;BME280;47610;52.252;20.922;2023-04-20T16:02:35;100554.92;;;18.08;31.21
61697;BME280;47610;52.252;20.922;2023-04-20T16:07:38;100552.56;;;18.09;30.61
61697;BME280;47610;52.252;20.922;2023-04-20T16:12:42;100554.64;;;18.04;30.31
61697;BME280;47610;52.252;20.922;2023-04-20T16:17:46;100551.54;;;17.99;29.96
61697;BME280;47610;52.252;20.922;2023-04-20T16:22:49;100553.65;;;17.94;30.21
61697;BME280;47610;52.252;20.922;2023-04-20T16:27:52;100559.88;;;17.86;30.78
61697;BME280;47610;52.252;20.922;2023-04-20T16:32:58;100562.83;;;17.74;31.19
61697;BME280;47610;52.252;20.922;2023-04-20T16:38:02;100566.16;;;17.62;31.81
61697;BME280;47610;52.252;20.922;2023-04-20T16:43:07;100566.40;;;17.48;31.99
61697;BME280;47610;52.252;20.922;2023-04-20T16:48:10;100571.95;;;17.36;32.34
61697;BME280;47610;52.252;20.922;2023-04-20T16:53:15;100572.36;;;17.24;33.18
61697;BME280;47610;52.252;20.922;2023-04-20T16:58:20;100581.02;;;17.10;33.85
61697;BME280;47610;52.252;20.922;2023-04-20T17:03:24;100588.95;;;16.97;34.40
61697;BME280;47610;52.252;20.922;2023-04-20T17:08:27;100586.66;;;16.86;35.19
61697;BME280;47610;52.252;20.922;2023-04-20T17:13:32;100586.02;;;16.74;35.92
61697;BME280;47610;52.252;20.922;2023-04-20T17:18:35;100590.45;;;16.61;36.99
61697;BME280;47610;52.252;20.922;2023-04-20T17:23:39;100594.98;;;16.47;37.82
61697;BME280;47610;52.252;20.922;2023-04-20T17:28:42;100602.38;;;16.33;38.61
61697;BME280;47610;52.252;20.922;2023-04-20T17:33:45;100605.80;;;16.20;39.44
61697;BME280;47610;52.252;20.922;2023-04-20T17:38:48;100611.00;;;16.07;40.40
61697;BME280;47610;52.252;20.922;2023-04-20T17:43:52;100613.95;;;15.95;41.40
61697;BME280;47610;52.252;20.922;2023-04-20T17:48:56;100616.23;;;15.83;42.00
61697;BME280;47610;52.252;20.922;2023-04-20T17:54:00;100615.18;;;15.72;42.88
61697;BME280;47610;52.252;20.922;2023-04-20T17:59:03;100613.29;;;15.62;43.72
61697;BME280;47610;52.252;20.922;2023-04-20T18:04:06;100613.77;;;15.50;44.44
61697;BME280;47610;52.252;20.922;2023-04-20T18:09:11;100616.89;;;15.38;45.06
61697;BME280;47610;52.252;20.922;2023-04-20T18:14:15;100615.33;;;15.25;45.96
61697;BME280;47610;52.252;20.922;2023-04-20T18:19:19;100622.98;;;15.15;46.55
61697;BME280;47610;52.252;20.922;2023-04-20T18:24:22;100617.70;;;15.04;47.45
61697;BME280;47610;52.252;20.922;2023-04-20T18:29:26;100624.76;;;14.96;47.96
61697;BME280;47610;52.252;20.922;2023-04-20T18:34:30;100625.36;;;14.87;49.03
61697;BME280;47610;52.252;20.922;2023-04-20T18:39:33;100624.95;;;14.77;49.97
61697;BME280;47610;52.252;20.922;2023-04-20T18:44:37;100629.08;;;14.67;50.72
61697;BME280;47610;52.252;20.922;2023-04-20T18:49:40;100625.48;;;14.57;51.31
61697;BME280;47610;52.252;20.922;2023-04-20T18:54:43;100632.27;;;14.48;52.06
61697;BME280;47610;52.252;20.922;2023-04-20T18:59:47;100638.39;;;14.42;52.88
61697;BME280;47610;52.252;20.922;2023-04-20T19:04:52;100638.65;;;14.33;53.61
61697;BME280;47610;52.252;20.922;2023-04-20T19:09:55;100638.87;;;14.23;54.21
61697;BME280;47610;52.252;20.922;2023-04-20T19:14:59;100640.36;;;14.19;54.68
61697;BME280;47610;52.252;20.922;2023-04-20T19:20:04;100643.19;;;14.13;55.01
61697;BME280;47610;52.252;20.922;2023-04-20T19:25:10;100645.92;;;14.07;55.60
61697;BME280;47610;52.252;20.922;2023-04-20T19:30:15;100647.73;;;14.02;55.77
61697;BME280;47610;52.252;20.922;2023-04-20T19:35:18;100648.61;;;13.98;56.40
61697;BME280;47610;52.252;20.922;2023-04-20T19:40:22;100651.23;;;13.95;56.93
61697;BME280;47610;52.252;20.922;2023-04-20T19:45:25;100651.06;;;13.90;57.59
61697;BME280;47610;52.252;20.922;2023-04-20T19:50:29;100653.11;;;13.84;58.03
61697;BME280;47610;52.252;20.922;2023-04-20T19:55:33;100652.81;;;13.80;58.45
61697;BME280;47610;52.252;20.922;2023-04-20T20:00:37;100657.84;;;13.74;58.82
61697;BME280;47610;52.252;20.922;2023-04-20T20:05:40;100657.27;;;13.66;59.38
61697;BME280;47610;52.252;20.922;2023-04-20T20:10:44;100658.62;;;13.54;59.72
61697;BME280;47610;52.252;20.922;2023-04-20T20:15:47;100659.48;;;13.44;60.48
61697;BME280;47610;52.252;20.922;2023-04-20T20:20:50;100658.17;;;13.31;61.03
61697;BME280;47610;52.252;20.922;2023-04-20T20:25:54;100655.20;;;13.20;61.65
61697;BME280;47610;52.252;20.922;2023-04-20T20:30:57;100657.73;;;13.11;62.15
61697;BME280;47610;52.252;20.922;2023-04-20T20:36:00;100662.45;;;13.00;63.13
61697;BME280;47610;52.252;20.922;2023-04-20T20:41:05;100662.44;;;12.92;63.78
61697;BME280;47610;52.252;20.922;2023-04-20T20:46:09;100656.86;;;12.81;64.60
61697;BME280;47610;52.252;20.922;2023-04-20T20:51:12;100661.77;;;12.72;65.41
61697;BME280;47610;52.252;20.922;2023-04-20T20:56:16;100665.93;;;12.64;66.25
61697;BME280;47610;52.252;20.922;2023-04-20T21:01:19;100666.19;;;12.56;67.56
61697;BME280;47610;52.252;20.922;2023-04-20T21:06:22;100666.77;;;12.47;68.48
61697;BME280;47610;52.252;20.922;2023-04-20T21:11:26;100666.52;;;12.39;69.56
61697;BME280;47610;52.252;20.922;2023-04-20T21:16:29;100667.70;;;12.33;70.65
61697;BME280;47610;52.252;20.922;2023-04-20T21:21:32;100666.73;;;12.26;71.71
61697;BME280;47610;52.252;20.922;2023-04-20T21:26:37;100664.64;;;12.19;72.81
61697;BME280;47610;52.252;20.922;2023-04-20T21:31:39;100667.30;;;12.15;73.43
61697;BME280;47610;52.252;20.922;2023-04-20T21:36:42;100666.20;;;12.11;74.15
61697;BME280;47610;52.252;20.922;2023-04-20T21:41:45;100669.07;;;12.07;74.75
61697;BME280;47610;52.252;20.922;2023-04-20T21:46:49;100666.49;;;12.03;75.44
61697;BME280;47610;52.252;20.922;2023-04-20T21:51:52;100664.29;;;11.99;76.11
61697;BME280;47610;52.252;20.922;2023-04-20T21:56:56;100661.48;;;11.93;76.72
61697;BME280;47610;52.252;20.922;2023-04-20T22:01:59;100659.84;;;11.89;77.54
61697;BME280;47610;52.252;20.922;2023-04-20T22:07:02;100663.51;;;11.84;78.19
61697;BME280;47610;52.252;20.922;2023-04-20T22:12:08;100667.65;;;11.79;78.70
61697;BME280;47610;52.252;20.922;2023-04-20T22:17:11;100667.82;;;11.74;79.43
61697;BME280;47610;52.252;20.922;2023-04-20T22:22:14;100669.20;;;11.70;80.42
61697;BME280;47610;52.252;20.922;2023-04-20T22:27:17;100671.79;;;11.70;81.50
61697;BME280;47610;52.252;20.922;2023-04-20T22:32:21;100673.83;;;11.68;82.34
61697;BME280;47610;52.252;20.922;2023-04-20T22:37:24;100673.71;;;11.66;83.20
61697;BME280;47610;52.252;20.922;2023-04-20T22:42:27;100676.52;;;11.64;84.06
61697;BME280;47610;52.252;20.922;2023-04-20T22:47:30;100677.91;;;11.60;84.70
61697;BME280;47610;52.252;20.922;2023-04-20T22:52:34;100675.91;;;11.55;85.15
61697;BME280;47610;52.252;20.922;2023-04-20T22:57:37;100674.70;;;11.48;85.70
61697;BME280;47610;52.252;20.922;2023-04-20T23:02:40;100670.84;;;11.43;86.41
61697;BME280;47610;52.252;20.922;2023-04-20T23:07:44;100672.92;;;11.38;87.09
61697;BME280;47610;52.252;20.922;2023-04-20T23:12:47;100670.05;;;11.30;88.17
61697;BME280;47610;52.252;20.922;2023-04-20T23:17:50;100670.14;;;11.19;89.07
61697;BME280;47610;52.252;20.922;2023-04-20T23:22:54;100674.86;;;11.09;90.43
61697;BME280;47610;52.252;20.922;2023-04-20T23:27:57;100672.80;;;10.99;91.81
61697;BME280;47610;52.252;20.922;2023-04-20T23:33:00;100672.00;;;10.89;92.86
61697;BME280;47610;52.252;20.922;2023-04-20T23:38:03;100671.36;;;10.80;93.67
61697;BME280;47610;52.252;20.922;2023-04-20T23:43:06;100670.45;;;10.71;95.07
61697;BME280;47610;52.252;20.922;2023-04-20T23:48:10;100667.00;;;10.63;96.45
61697;BME280;47610;52.252;20.922;2023-04-20T23:53:13;100663.56;;;10.56;97.42
61697;BME280;47610;52.252;20.922;2023-04-20T23:58:16;100663.91;;;10.49;98.37
